createdAt,value
2023-06-19T00:02:04.792Z,7.13
2023-06-19T00:04:31.842Z,6.97
2023-06-19T00:07:00.524Z,7.47
2023-06-19T00:09:27.433Z,8.00
2023-06-19T00:11:54.368Z,6.57
2023-06-19T00:14:20.890Z,7.00
2023-06-19T00:16:47.854Z,6.87
2023-06-19T00:19:14.382Z,7.90
2023-06-19T00:21:41.238Z,7.17
2023-06-19T00:24:07.799Z,10.33
2023-06-19T00:26:34.879Z,7.63
2023-06-19T00:29:01.478Z,7.10
2023-06-19T00:31:28.325Z,8.47
2023-06-19T00:33:55.302Z,8.60
2023-06-19T00:36:21.893Z,8.07
2023-06-19T00:38:49.252Z,6.70
2023-06-19T00:41:19.031Z,6.93
2023-06-19T00:43:45.954Z,7.43
2023-06-19T00:46:12.989Z,7.77
2023-06-19T00:48:40.496Z,6.43
2023-06-19T00:51:07.294Z,8.37
2023-06-19T00:53:34.512Z,9.47
2023-06-19T00:56:01.572Z,6.97
2023-06-19T00:58:28.154Z,7.97
2023-06-19T01:01:07.227Z,7.73
2023-06-19T01:03:35.214Z,7.27
2023-06-19T01:06:03.763Z,7.47
2023-06-19T01:08:48.871Z,7.23
2023-06-19T01:11:26.789Z,7.73
2023-06-19T01:13:59.473Z,7.37
2023-06-19T01:16:26.766Z,9.30
2023-06-19T01:18:54.880Z,7.63
2023-06-19T01:21:21.413Z,7.30
2023-06-19T01:23:48.387Z,8.07
2023-06-19T01:26:17.106Z,7.80
2023-06-19T01:28:45.669Z,7.07
2023-06-19T01:31:52.862Z,8.83
2023-06-19T01:34:22.278Z,7.83
2023-06-19T01:36:49.634Z,7.53
2023-06-19T01:39:19.271Z,7.23
2023-06-19T01:41:46.684Z,7.70
2023-06-19T01:44:13.741Z,8.93
2023-06-19T01:46:40.273Z,8.13
2023-06-19T01:49:10.479Z,8.63
2023-06-19T01:51:37.559Z,8.67
2023-06-19T01:54:04.248Z,8.20
2023-06-19T01:56:31.262Z,8.50
2023-06-19T01:58:58.114Z,7.83
2023-06-19T02:01:24.923Z,7.87
2023-06-19T02:03:51.769Z,8.53
2023-06-19T02:06:18.298Z,9.67
2023-06-19T02:08:45.145Z,8.07
2023-06-19T02:11:11.628Z,9.20
2023-06-19T02:13:40.262Z,9.60
2023-06-19T02:16:07.644Z,8.27
2023-06-19T02:18:34.557Z,8.30
2023-06-19T02:21:01.376Z,7.67
2023-06-19T02:23:27.864Z,8.50
2023-06-19T02:25:54.822Z,9.10
2023-06-19T02:28:21.728Z,10.83
2023-06-19T02:30:48.262Z,8.50
2023-06-19T02:33:14.798Z,11.53
2023-06-19T02:35:41.627Z,8.70
2023-06-19T02:38:08.397Z,9.67
2023-06-19T02:40:35.310Z,8.10
2023-06-19T02:43:01.817Z,7.70
2023-06-19T02:45:28.724Z,8.23
2023-06-19T02:47:55.685Z,7.83
2023-06-19T02:50:22.453Z,7.43
2023-06-19T02:52:49.648Z,7.57
2023-06-19T02:55:16.235Z,7.53
2023-06-19T02:57:43.119Z,7.10
2023-06-19T03:00:10.372Z,7.10
2023-06-19T03:02:37.025Z,7.33
2023-06-19T03:05:04.268Z,6.97
2023-06-19T03:07:30.749Z,6.47
2023-06-19T03:09:57.635Z,7.90
2023-06-19T03:12:24.141Z,6.90
2023-06-19T03:14:50.634Z,7.00
2023-06-19T03:17:17.517Z,7.57
2023-06-19T03:19:43.993Z,5.67
2023-06-19T03:22:10.724Z,5.30
2023-06-19T03:24:37.374Z,6.03
2023-06-19T03:27:04.531Z,7.57
2023-06-19T03:29:31.018Z,5.87
2023-06-19T03:31:57.866Z,6.10
2023-06-19T03:34:24.354Z,5.37
2023-06-19T03:36:51.258Z,6.07
2023-06-19T03:39:17.739Z,5.13
2023-06-19T03:41:44.503Z,6.80
2023-06-19T03:44:11.350Z,5.63
2023-06-19T03:46:37.918Z,6.60
2023-06-19T03:49:04.780Z,7.03
2023-06-19T03:51:31.508Z,6.27
2023-06-19T03:53:58.206Z,6.20
2023-06-19T03:56:24.707Z,5.57
2023-06-19T03:58:51.986Z,5.07
2023-06-19T04:01:18.895Z,5.27
2023-06-19T04:03:45.482Z,6.07
2023-06-19T04:06:12.446Z,6.47
2023-06-19T04:08:38.935Z,5.57
2023-06-19T04:11:05.429Z,8.10
2023-06-19T04:13:31.937Z,6.80
2023-06-19T04:15:58.873Z,5.33
2023-06-19T04:18:25.363Z,7.37
2023-06-19T04:20:52.199Z,5.93
2023-06-19T04:23:18.697Z,6.57
2023-06-19T04:25:45.234Z,6.53
2023-06-19T04:28:11.998Z,6.40
2023-06-19T04:30:38.504Z,6.03
2023-06-19T04:33:05.070Z,6.40
2023-06-19T04:35:31.607Z,4.73
2023-06-19T04:37:58.237Z,5.17
2023-06-19T04:40:25.226Z,6.23
2023-06-19T04:42:51.806Z,5.50
2023-06-19T04:45:18.320Z,5.97
2023-06-19T04:47:53.211Z,5.73
2023-06-19T04:50:22.368Z,6.13
2023-06-19T04:52:49.312Z,5.53
2023-06-19T04:55:16.042Z,7.10
2023-06-19T04:57:42.572Z,4.27
2023-06-19T05:00:09.626Z,5.47
2023-06-19T05:02:36.360Z,5.97
2023-06-19T05:05:03.522Z,4.37
2023-06-19T05:07:33.463Z,6.43
2023-06-19T05:10:00.512Z,5.23
2023-06-19T05:12:27.425Z,5.07
2023-06-19T05:14:54.041Z,4.57
2023-06-19T05:17:21.325Z,6.07
2023-06-19T05:19:48.036Z,5.17
2023-06-19T05:22:14.663Z,5.27
2023-06-19T05:24:41.791Z,6.20
2023-06-19T05:27:08.496Z,5.30
2023-06-19T05:29:35.395Z,6.17
2023-06-19T05:32:02.415Z,6.27
2023-06-19T05:34:29.434Z,5.37
2023-06-19T05:36:55.915Z,4.40
2023-06-19T05:39:22.435Z,4.73
2023-06-19T05:41:49.512Z,5.20
2023-06-19T05:44:16.295Z,4.53
2023-06-19T05:46:43.492Z,4.93
2023-06-19T05:49:10.054Z,4.80
2023-06-19T05:51:36.556Z,5.07
2023-06-19T05:54:03.503Z,4.83
2023-06-19T05:56:33.702Z,5.47
2023-06-19T05:59:03.958Z,4.73
2023-06-19T06:01:31.141Z,4.60
2023-06-19T06:03:58.110Z,4.73
2023-06-19T06:06:25.200Z,3.70
2023-06-19T06:08:51.822Z,4.53
2023-06-19T06:11:19.234Z,4.53
2023-06-19T06:13:45.720Z,5.20
2023-06-19T06:16:12.709Z,5.20
2023-06-19T06:18:39.203Z,3.60
2023-06-19T06:21:06.058Z,3.80
2023-06-19T06:23:32.533Z,4.13
2023-06-19T06:25:59.546Z,5.97
2023-06-19T06:28:26.050Z,4.67
2023-06-19T06:30:52.922Z,4.17
2023-06-19T06:33:19.386Z,4.83
2023-06-19T06:35:45.881Z,3.83
2023-06-19T06:38:12.735Z,4.80
2023-06-19T06:40:39.270Z,4.07
2023-06-19T06:43:06.150Z,3.47
2023-06-19T06:45:33.004Z,4.43
2023-06-19T06:47:59.551Z,4.17
2023-06-19T06:50:26.590Z,6.73
2023-06-19T06:52:53.352Z,5.13
2023-06-19T06:55:20.313Z,4.67
2023-06-19T06:57:46.789Z,4.93
2023-06-19T07:00:14.164Z,4.43
2023-06-19T07:02:40.905Z,6.00
2023-06-19T07:05:11.962Z,5.93
2023-06-19T07:07:39.179Z,4.03
2023-06-19T07:10:06.556Z,4.67
2023-06-19T07:12:34.264Z,3.90
2023-06-19T07:15:00.787Z,6.10
2023-06-19T07:17:27.613Z,5.27
2023-06-19T07:19:54.513Z,4.60
2023-06-19T07:22:21.066Z,4.63
2023-06-19T07:24:48.005Z,7.50
2023-06-19T07:27:14.901Z,5.03
2023-06-19T07:29:41.850Z,5.23
2023-06-19T07:32:08.870Z,5.60
2023-06-19T07:34:35.343Z,5.37
2023-06-19T07:37:01.970Z,4.53
2023-06-19T07:39:28.939Z,6.07
2023-06-19T07:41:55.813Z,6.33
2023-06-19T07:44:22.330Z,3.57
2023-06-19T07:46:49.205Z,5.03
2023-06-19T07:49:15.718Z,6.97
2023-06-19T07:51:42.594Z,5.30
2023-06-19T07:54:09.468Z,3.93
2023-06-19T07:56:35.978Z,4.33
2023-06-19T07:59:05.084Z,5.57
2023-06-19T08:01:32.518Z,4.47
2023-06-19T08:03:59.466Z,4.47
2023-06-19T08:06:26.006Z,7.30
2023-06-19T08:08:52.851Z,4.83
2023-06-19T08:11:19.368Z,5.30
2023-06-19T08:13:46.261Z,4.37
2023-06-19T08:16:12.754Z,4.47
2023-06-19T08:18:39.563Z,4.90
2023-06-19T08:21:06.066Z,4.20
2023-06-19T08:23:32.966Z,5.40
2023-06-19T08:25:59.468Z,4.10
2023-06-19T08:28:26.417Z,3.43
2023-06-19T08:30:52.923Z,3.90
2023-06-19T08:33:19.428Z,5.30
2023-06-19T08:35:46.311Z,3.10
2023-06-19T08:38:12.825Z,4.13
2023-06-19T08:40:39.395Z,3.53
2023-06-19T08:43:06.303Z,3.60
2023-06-19T08:45:32.801Z,4.67
2023-06-19T08:48:00.660Z,3.00
2023-06-19T08:50:27.620Z,2.90
2023-06-19T08:52:56.154Z,4.77
2023-06-19T08:55:23.401Z,4.37
2023-06-19T08:57:50.748Z,3.30
2023-06-19T09:00:29.120Z,4.17
2023-06-19T09:03:13.602Z,3.57
2023-06-19T09:05:44.129Z,5.27
2023-06-19T09:08:14.323Z,6.50
2023-06-19T09:10:41.212Z,3.93
2023-06-19T09:13:08.106Z,6.93
2023-06-19T09:15:38.236Z,4.80
2023-06-19T09:18:10.355Z,4.83
2023-06-19T09:20:42.259Z,5.10
2023-06-19T09:23:09.123Z,5.97
2023-06-19T09:25:48.386Z,5.57
2023-06-19T09:28:26.431Z,4.83
2023-06-19T09:30:56.705Z,4.20
2023-06-19T09:33:26.097Z,3.90
2023-06-19T09:35:55.393Z,5.30
2023-06-19T09:38:27.494Z,7.10
2023-06-19T09:40:54.978Z,7.10
2023-06-19T09:43:26.848Z,5.63
2023-06-19T09:45:57.329Z,5.97
2023-06-19T09:48:32.487Z,4.80
2023-06-19T09:51:20.522Z,5.13
2023-06-19T09:53:48.379Z,6.33
2023-06-19T09:56:16.467Z,5.77
2023-06-19T09:58:46.820Z,6.50
2023-06-19T10:01:14.869Z,6.30
2023-06-19T10:03:41.515Z,7.80
2023-06-19T10:06:15.276Z,6.10
2023-06-19T10:08:43.440Z,8.30
2023-06-19T10:11:10.455Z,5.93
2023-06-19T10:13:39.413Z,5.80
2023-06-19T10:16:06.276Z,6.90
2023-06-19T10:18:34.107Z,8.27
2023-06-19T10:21:00.673Z,7.63
2023-06-19T10:23:27.840Z,7.13
2023-06-19T10:26:02.076Z,6.47
2023-06-19T10:28:33.423Z,6.97
2023-06-19T10:31:06.744Z,7.70
2023-06-19T10:33:35.580Z,7.40
2023-06-19T10:36:15.350Z,11.43
2023-06-19T10:38:42.416Z,6.80
2023-06-19T10:41:17.125Z,7.23
2023-06-19T10:43:57.914Z,7.70
2023-06-19T10:46:26.351Z,7.67
2023-06-19T10:48:53.059Z,7.07
2023-06-19T10:51:20.559Z,7.73
2023-06-19T10:53:47.356Z,8.43
2023-06-19T10:56:13.874Z,7.93
2023-06-19T10:58:40.723Z,6.93
2023-06-19T11:01:07.271Z,7.20
2023-06-19T11:03:34.215Z,7.00
2023-06-19T11:06:00.789Z,8.20
2023-06-19T11:08:27.647Z,7.60
2023-06-19T11:10:54.154Z,7.43
2023-06-19T11:13:21.500Z,8.07
2023-06-19T11:15:52.187Z,7.47
2023-06-19T11:18:19.691Z,6.87
2023-06-19T11:20:53.432Z,6.10
2023-06-19T11:23:28.375Z,9.00
2023-06-19T11:25:54.998Z,6.73
2023-06-19T11:28:21.528Z,8.87
2023-06-19T11:30:48.403Z,7.37
2023-06-19T11:33:21.635Z,7.57
2023-06-19T11:35:51.878Z,8.50
2023-06-19T11:38:23.496Z,8.40
2023-06-19T11:40:50.722Z,8.73
2023-06-19T11:43:31.345Z,7.30
2023-06-19T11:46:09.587Z,7.83
2023-06-19T11:48:40.168Z,6.63
2023-06-19T11:51:07.113Z,7.60
2023-06-19T11:53:33.985Z,6.67
2023-06-19T11:56:00.531Z,8.80
2023-06-19T11:58:27.422Z,7.40
2023-06-19T12:00:54.946Z,6.93
2023-06-19T12:03:21.579Z,6.50
2023-06-19T12:05:48.626Z,8.30
2023-06-19T12:08:15.161Z,7.43
2023-06-19T12:10:42.183Z,6.73
2023-06-19T12:13:08.688Z,7.43
2023-06-19T12:15:37.662Z,7.33
2023-06-19T12:18:05.673Z,6.37
2023-06-19T12:20:32.356Z,6.27
2023-06-19T12:22:59.342Z,7.67
2023-06-19T12:25:25.864Z,7.03
2023-06-19T12:27:55.467Z,8.67
2023-06-19T12:30:23.164Z,6.10
2023-06-19T12:32:50.122Z,6.27
2023-06-19T12:35:17.046Z,7.97
2023-06-19T12:37:43.940Z,9.07
2023-06-19T12:40:10.955Z,6.30
2023-06-19T12:42:38.234Z,7.30
2023-06-19T12:45:05.088Z,6.80
2023-06-19T12:47:32.041Z,6.47
2023-06-19T12:49:58.560Z,6.17
2023-06-19T12:52:25.441Z,7.50
2023-06-19T12:54:51.945Z,6.63
2023-06-19T12:57:18.497Z,6.83
2023-06-19T12:59:45.350Z,6.90
2023-06-19T13:02:15.066Z,7.00
2023-06-19T13:04:42.659Z,8.33
2023-06-19T13:07:09.216Z,6.97
2023-06-19T13:09:36.044Z,6.73
2023-06-19T13:12:03.339Z,6.67
2023-06-19T13:14:30.046Z,8.37
2023-06-19T13:16:57.019Z,6.00
2023-06-19T13:19:23.946Z,6.17
2023-06-19T13:21:50.458Z,6.67
2023-06-19T13:24:17.347Z,6.53
2023-06-19T13:26:45.430Z,6.93
2023-06-19T13:29:12.908Z,6.00
2023-06-19T13:31:39.618Z,7.37
2023-06-19T13:34:06.142Z,8.30
2023-06-19T13:36:32.857Z,8.00
2023-06-19T13:38:59.369Z,8.70
2023-06-19T13:41:26.235Z,6.30
2023-06-19T13:43:53.182Z,7.13
2023-06-19T13:46:20.175Z,6.70
2023-06-19T13:48:47.083Z,7.27
2023-06-19T13:51:13.580Z,7.77
2023-06-19T13:53:40.416Z,5.83
2023-06-19T13:56:06.902Z,6.00
2023-06-19T13:58:33.777Z,8.13
2023-06-19T14:01:00.735Z,6.77
2023-06-19T14:03:27.752Z,7.20
2023-06-19T14:05:54.638Z,5.90
2023-06-19T14:08:21.134Z,5.47
2023-06-19T14:10:48.019Z,6.53
2023-06-19T14:13:15.128Z,6.23
2023-06-19T14:15:42.173Z,6.20
2023-06-19T14:18:08.729Z,6.37
2023-06-19T14:20:36.013Z,8.27
2023-06-19T14:23:02.527Z,7.10
2023-06-19T14:25:29.424Z,7.10
2023-06-19T14:27:55.999Z,7.27
2023-06-19T14:30:23.093Z,6.27
2023-06-19T14:32:50.155Z,7.17
2023-06-19T14:35:16.703Z,6.10
2023-06-19T14:37:43.488Z,6.90
2023-06-19T14:40:10.481Z,7.20
2023-06-19T14:42:37.067Z,7.57
2023-06-19T14:45:04.108Z,7.07
2023-06-19T14:47:30.714Z,6.70
2023-06-19T14:49:57.669Z,7.90
2023-06-19T14:52:24.174Z,6.23
2023-06-19T14:54:50.724Z,8.73
2023-06-19T14:57:17.257Z,6.37
2023-06-19T14:59:44.096Z,7.40
2023-06-19T15:02:10.691Z,5.90
2023-06-19T15:04:37.649Z,6.30
2023-06-19T15:07:04.481Z,7.47
2023-06-19T15:09:32.105Z,6.17
2023-06-19T15:11:58.643Z,9.03
2023-06-19T15:14:25.610Z,6.37
2023-06-19T15:16:52.453Z,7.57
2023-06-19T15:19:19.085Z,8.00
2023-06-19T15:21:46.034Z,7.93
2023-06-19T15:24:12.919Z,6.93
2023-06-19T15:26:40.378Z,6.43
2023-06-19T15:29:07.075Z,6.10
2023-06-19T15:31:33.574Z,6.37
2023-06-19T15:34:00.077Z,8.10
2023-06-19T15:36:26.593Z,8.00
2023-06-19T15:38:53.465Z,6.47
2023-06-19T15:41:19.972Z,6.77
2023-06-19T15:43:46.556Z,8.47
2023-06-19T15:46:15.936Z,7.70
2023-06-19T15:48:43.323Z,7.33
2023-06-19T15:51:10.239Z,7.10
2023-06-19T15:53:39.806Z,6.17
2023-06-19T15:56:06.706Z,7.97
2023-06-19T15:58:33.215Z,8.03
2023-06-19T16:00:59.962Z,7.70
2023-06-19T16:03:26.507Z,9.90
2023-06-19T16:06:06.408Z,7.10
2023-06-19T16:08:34.727Z,9.83
2023-06-19T16:11:01.636Z,6.93
2023-06-19T16:13:28.134Z,5.90
2023-06-19T16:15:54.751Z,7.13
2023-06-19T16:18:21.494Z,7.73
2023-06-19T16:20:48.001Z,8.47
2023-06-19T16:23:14.894Z,10.33
2023-06-19T16:25:41.402Z,7.83
2023-06-19T16:28:08.218Z,8.40
2023-06-19T16:30:35.087Z,7.47
2023-06-19T16:33:02.064Z,8.67
2023-06-19T16:35:28.582Z,8.77
2023-06-19T16:37:55.791Z,6.90
2023-06-19T16:40:23.222Z,8.37
2023-06-19T16:42:50.662Z,7.93
2023-06-19T16:45:17.208Z,8.73
2023-06-19T16:47:44.073Z,8.47
2023-06-19T16:50:11.043Z,7.70
2023-06-19T16:52:38.022Z,7.27
2023-06-19T16:55:04.831Z,7.70
2023-06-19T16:57:31.589Z,10.27
2023-06-19T16:59:58.088Z,8.73
2023-06-19T17:02:25.009Z,9.03
2023-06-19T17:04:51.759Z,8.13
2023-06-19T17:07:18.597Z,8.57
2023-06-19T17:09:45.221Z,8.07
2023-06-19T17:12:12.143Z,9.50
2023-06-19T17:14:39.168Z,7.27
2023-06-19T17:17:06.252Z,7.73
2023-06-19T17:19:33.216Z,6.63
2023-06-19T17:21:59.765Z,7.20
2023-06-19T17:24:26.693Z,8.57
2023-06-19T17:26:53.200Z,12.00
2023-06-19T17:29:19.980Z,9.27
2023-06-19T17:31:46.524Z,9.07
2023-06-19T17:34:13.217Z,8.67
2023-06-19T17:36:39.754Z,8.10
2023-06-19T17:39:06.250Z,8.47
2023-06-19T17:41:32.820Z,9.33
2023-06-19T17:44:03.458Z,9.90
2023-06-19T17:46:30.400Z,8.63
2023-06-19T17:48:57.244Z,8.40
2023-06-19T17:51:23.770Z,8.57
2023-06-19T17:53:50.610Z,9.60
2023-06-19T17:56:18.281Z,9.47
2023-06-19T17:58:44.909Z,7.73
2023-06-19T18:01:11.464Z,7.67
2023-06-19T18:03:38.498Z,9.77
2023-06-19T18:06:05.099Z,8.40
2023-06-19T18:08:31.606Z,8.33
2023-06-19T18:10:58.263Z,8.37
2023-06-19T18:13:25.218Z,9.17
2023-06-19T18:16:06.851Z,8.10
2023-06-19T18:18:39.021Z,8.13
2023-06-19T18:21:05.838Z,8.43
2023-06-19T18:23:32.343Z,8.63
2023-06-19T18:25:59.098Z,8.93
2023-06-19T18:28:25.600Z,9.47
2023-06-19T18:30:52.086Z,9.17
2023-06-19T18:33:18.571Z,7.33
2023-06-19T18:35:45.146Z,7.00
2023-06-19T18:38:11.627Z,9.13
2023-06-19T18:40:38.139Z,10.80
2023-06-19T18:43:04.892Z,6.50
2023-06-19T18:45:31.368Z,8.50
2023-06-19T18:47:58.295Z,8.87
2023-06-19T18:50:25.040Z,10.37
2023-06-19T18:52:52.069Z,9.50
2023-06-19T18:55:19.602Z,8.47
2023-06-19T18:57:46.463Z,8.70
2023-06-19T19:00:13.927Z,7.40
2023-06-19T19:02:40.676Z,9.10
2023-06-19T19:05:08.045Z,10.43
2023-06-19T19:07:34.544Z,8.50
2023-06-19T19:10:01.562Z,12.60
2023-06-19T19:12:28.110Z,17.77
2023-06-19T19:14:54.595Z,10.70
2023-06-19T19:17:21.189Z,8.13
2023-06-19T19:19:47.725Z,9.60
2023-06-19T19:22:14.590Z,11.53
2023-06-19T19:24:41.535Z,9.30
2023-06-19T19:27:08.113Z,9.27
2023-06-19T19:29:35.005Z,7.47
2023-06-19T19:32:01.575Z,9.33
2023-06-19T19:34:28.100Z,8.87
2023-06-19T19:36:54.926Z,7.93
2023-06-19T19:39:21.417Z,9.17
2023-06-19T19:41:48.348Z,9.20
2023-06-19T19:44:14.938Z,10.50
2023-06-19T19:46:42.469Z,7.63
2023-06-19T19:49:09.182Z,10.70
2023-06-19T19:51:36.583Z,10.07
2023-06-19T19:54:03.512Z,9.27
2023-06-19T19:56:30.046Z,8.87
2023-06-19T19:58:56.894Z,7.90
2023-06-19T20:01:23.516Z,9.40
2023-06-19T20:03:50.501Z,8.10
2023-06-19T20:06:17.135Z,9.33
2023-06-19T20:08:44.664Z,10.83
2023-06-19T20:11:14.140Z,11.93
2023-06-19T20:13:41.242Z,12.10
2023-06-19T20:16:10.700Z,11.87
2023-06-19T20:18:37.654Z,11.40
2023-06-19T20:21:04.293Z,11.07
2023-06-19T20:23:31.234Z,10.30
2023-06-19T20:25:57.892Z,9.77
2023-06-19T20:28:24.836Z,13.83
2023-06-19T20:30:51.356Z,11.50
2023-06-19T20:33:18.186Z,13.97
2023-06-19T20:35:45.225Z,10.10
2023-06-19T20:38:11.716Z,11.83
2023-06-19T20:40:38.387Z,12.33
2023-06-19T20:43:04.962Z,12.43
2023-06-19T20:45:31.877Z,11.93
2023-06-19T20:47:58.628Z,11.80
2023-06-19T20:50:25.817Z,9.63
2023-06-19T20:52:52.909Z,12.60
2023-06-19T20:55:19.889Z,10.70
2023-06-19T20:57:46.620Z,12.03
2023-06-19T21:00:13.485Z,16.20
2023-06-19T21:02:40.989Z,11.13
2023-06-19T21:05:07.951Z,12.87
2023-06-19T21:07:34.466Z,12.93
2023-06-19T21:10:01.359Z,11.97
2023-06-19T21:12:27.842Z,11.40
2023-06-19T21:14:55.805Z,12.40
2023-06-19T21:17:23.080Z,10.93
2023-06-19T21:19:49.588Z,12.00
2023-06-19T21:22:16.416Z,10.83
2023-06-19T21:24:43.421Z,11.80
2023-06-19T21:27:10.114Z,12.20
2023-06-19T21:29:37.103Z,10.97
2023-06-19T21:32:05.487Z,14.80
2023-06-19T21:34:33.337Z,11.77
2023-06-19T21:36:59.873Z,12.03
2023-06-19T21:39:26.359Z,12.90
2023-06-19T21:41:52.858Z,10.40
2023-06-19T21:44:19.697Z,11.13
2023-06-19T21:46:46.353Z,11.13
2023-06-19T21:49:13.000Z,11.80
2023-06-19T21:51:39.500Z,11.27
2023-06-19T21:54:06.020Z,11.67
2023-06-19T21:56:32.553Z,11.60
2023-06-19T21:58:59.042Z,11.80
2023-06-19T22:01:25.695Z,11.07
2023-06-19T22:03:52.322Z,11.70
2023-06-19T22:06:19.203Z,12.87
2023-06-19T22:08:45.681Z,11.30
2023-06-19T22:11:12.503Z,12.13
2023-06-19T22:13:38.985Z,13.47
2023-06-19T22:16:05.626Z,12.07
2023-06-19T22:18:32.633Z,14.17
2023-06-19T22:20:59.137Z,13.50
2023-06-19T22:23:26.022Z,14.70
2023-06-19T22:25:52.940Z,11.83
2023-06-19T22:28:19.503Z,12.23
2023-06-19T22:30:46.313Z,14.07
2023-06-19T22:33:12.778Z,13.97
2023-06-19T22:35:39.594Z,12.83
2023-06-19T22:38:06.070Z,13.43
2023-06-19T22:40:33.020Z,11.47
2023-06-19T22:42:59.519Z,13.20
2023-06-19T22:45:26.605Z,15.03
2023-06-19T22:47:53.412Z,11.53
2023-06-19T22:50:20.288Z,14.37
2023-06-19T22:52:47.128Z,13.27
2023-06-19T22:55:13.680Z,14.73
2023-06-19T22:57:40.468Z,13.37
2023-06-19T23:00:08.443Z,15.73
2023-06-19T23:02:35.619Z,15.17
2023-06-19T23:05:02.602Z,13.07
2023-06-19T23:07:31.092Z,13.53
2023-06-19T23:10:02.062Z,14.00
2023-06-19T23:12:28.847Z,13.03
2023-06-19T23:14:55.363Z,15.43
2023-06-19T23:17:23.276Z,13.63
2023-06-19T23:19:49.751Z,14.60
2023-06-19T23:22:16.637Z,12.20
2023-06-19T23:24:43.469Z,13.13
2023-06-19T23:27:10.463Z,11.93
2023-06-19T23:29:37.536Z,12.73
2023-06-19T23:32:05.626Z,15.37
2023-06-19T23:34:32.918Z,13.93
2023-06-19T23:37:02.229Z,16.07
2023-06-19T23:39:29.112Z,12.97
2023-06-19T23:41:55.690Z,12.27
2023-06-19T23:44:22.535Z,13.03
2023-06-19T23:46:49.189Z,13.17
2023-06-19T23:49:15.979Z,14.27
2023-06-19T23:51:42.513Z,12.83
2023-06-19T23:54:09.178Z,13.07
2023-06-19T23:56:36.002Z,13.53
2023-06-19T23:59:02.564Z,14.13
